Terminal Aerodrome Forecast
Issued by NWS

Home | Current Version | Previous Version | Text Only | Print | Product List | Glossary On
Versions: 1 2 3 4 5 6 7 8 9 10 11 12 13
000
FTUS46 KLOX 250000 AAA
TAFWJF
TAF AMD
KWJF 250000Z 2500/2524 25012KT P6SM SKC
     FM250400 25006KT P6SM SKC
     FM251000 22010KT P6SM SKC
     FM252000 22018G25KT P6SM SKC=

USA.gov is the U.S. government's official web portal to all federal, state and local government web resources and services.